sensor_id;sensor_type;location;lat;lon;timestamp;P1;durP1;ratioP1;P2;durP2;ratioP2
50066;SDS011;35952;52.524;13.340;2024-01-15T00:02:17;19.30;;;10.20;;
50066;SDS011;35952;52.524;13.340;2024-01-15T00:04:42;15.63;;;9.87;;
50066;SDS011;35952;52.524;13.340;2024-01-15T00:07:08;15.70;;;10.67;;
50066;SDS011;35952;52.524;13.340;2024-01-15T00:09:34;12.73;;;10.20;;
50066;SDS011;35952;52.524;13.340;2024-01-15T00:12:00;12.30;;;8.63;;
50066;SDS011;35952;52.524;13.340;2024-01-15T00:14:26;14.13;;;9.38;;
50066;SDS011;35952;52.524;13.340;2024-01-15T00:16:52;14.50;;;10.15;;
50066;SDS011;35952;52.524;13.340;2024-01-15T00:19:20;13.93;;;9.80;;
50066;SDS011;35952;52.524;13.340;2024-01-15T00:21:46;14.82;;;9.25;;
50066;SDS011;35952;52.524;13.340;2024-01-15T00:24:12;14.83;;;9.60;;
50066;SDS011;35952;52.524;13.340;2024-01-15T00:26:37;16.53;;;9.93;;
50066;SDS011;35952;52.524;13.340;2024-01-15T00:29:03;15.77;;;10.30;;
50066;SDS011;35952;52.524;13.340;2024-01-15T00:31:29;14.07;;;9.20;;
50066;SDS011;35952;52.524;13.340;2024-01-15T00:33:55;14.02;;;9.20;;
50066;SDS011;35952;52.524;13.340;2024-01-15T00:36:21;19.10;;;10.00;;
50066;SDS011;35952;52.524;13.340;2024-01-15T00:38:46;12.87;;;8.60;;
50066;SDS011;35952;52.524;13.340;2024-01-15T00:41:12;15.30;;;10.07;;
50066;SDS011;35952;52.524;13.340;2024-01-15T00:43:38;22.75;;;15.05;;
50066;SDS011;35952;52.524;13.340;2024-01-15T00:46:04;13.23;;;8.60;;
50066;SDS011;35952;52.524;13.340;2024-01-15T00:48:30;13.32;;;9.25;;
50066;SDS011;35952;52.524;13.340;2024-01-15T00:50:56;37.17;;;21.13;;
50066;SDS011;35952;52.524;13.340;2024-01-15T00:53:21;12.50;;;8.90;;
50066;SDS011;35952;52.524;13.340;2024-01-15T00:55:47;15.93;;;9.50;;
50066;SDS011;35952;52.524;13.340;2024-01-15T00:58:13;14.45;;;9.27;;
50066;SDS011;35952;52.524;13.340;2024-01-15T01:00:39;15.53;;;10.50;;
50066;SDS011;35952;52.524;13.340;2024-01-15T01:03:05;14.65;;;10.23;;
50066;SDS011;35952;52.524;13.340;2024-01-15T01:05:31;12.87;;;8.60;;
50066;SDS011;35952;52.524;13.340;2024-01-15T01:07:58;15.45;;;10.27;;
50066;SDS011;35952;52.524;13.340;2024-01-15T01:10:23;19.70;;;10.13;;
50066;SDS011;35952;52.524;13.340;2024-01-15T01:12:49;16.00;;;10.60;;
50066;SDS011;35952;52.524;13.340;2024-01-15T01:15:14;13.43;;;10.10;;
50066;SDS011;35952;52.524;13.340;2024-01-15T01:17:40;11.90;;;9.07;;
50066;SDS011;35952;52.524;13.340;2024-01-15T01:20:05;15.93;;;8.93;;
50066;SDS011;35952;52.524;13.340;2024-01-15T01:22:33;18.73;;;10.05;;
50066;SDS011;35952;52.524;13.340;2024-01-15T01:24:59;18.90;;;10.60;;
50066;SDS011;35952;52.524;13.340;2024-01-15T01:27:24;15.70;;;10.00;;
50066;SDS011;35952;52.524;13.340;2024-01-15T01:29:50;16.40;;;9.47;;
50066;SDS011;35952;52.524;13.340;2024-01-15T01:32:15;18.10;;;10.37;;
50066;SDS011;35952;52.524;13.340;2024-01-15T01:34:41;16.43;;;10.23;;
50066;SDS011;35952;52.524;13.340;2024-01-15T01:37:10;13.68;;;9.95;;
50066;SDS011;35952;52.524;13.340;2024-01-15T01:39:38;16.00;;;9.80;;
50066;SDS011;35952;52.524;13.340;2024-01-15T01:42:04;15.27;;;9.87;;
50066;SDS011;35952;52.524;13.340;2024-01-15T01:44:30;15.67;;;10.53;;
50066;SDS011;35952;52.524;13.340;2024-01-15T01:46:55;17.97;;;10.00;;
50066;SDS011;35952;52.524;13.340;2024-01-15T01:49:22;17.00;;;10.30;;
50066;SDS011;35952;52.524;13.340;2024-01-15T01:51:48;18.33;;;9.73;;
50066;SDS011;35952;52.524;13.340;2024-01-15T01:54:14;16.90;;;11.10;;
50066;SDS011;35952;52.524;13.340;2024-01-15T01:56:40;15.37;;;10.07;;
50066;SDS011;35952;52.524;13.340;2024-01-15T01:59:06;29.30;;;17.92;;
50066;SDS011;35952;52.524;13.340;2024-01-15T02:01:34;31.67;;;19.25;;
50066;SDS011;35952;52.524;13.340;2024-01-15T02:04:00;19.50;;;11.27;;
50066;SDS011;35952;52.524;13.340;2024-01-15T02:06:26;14.73;;;9.97;;
50066;SDS011;35952;52.524;13.340;2024-01-15T02:08:52;17.60;;;9.93;;
50066;SDS011;35952;52.524;13.340;2024-01-15T02:11:18;17.53;;;9.03;;
50066;SDS011;35952;52.524;13.340;2024-01-15T02:13:43;15.70;;;10.40;;
50066;SDS011;35952;52.524;13.340;2024-01-15T02:16:09;17.00;;;9.97;;
50066;SDS011;35952;52.524;13.340;2024-01-15T02:18:44;16.73;;;9.40;;
50066;SDS011;35952;52.524;13.340;2024-01-15T02:21:11;16.88;;;9.30;;
50066;SDS011;35952;52.524;13.340;2024-01-15T02:23:37;15.13;;;9.03;;
50066;SDS011;35952;52.524;13.340;2024-01-15T02:26:04;15.40;;;9.07;;
50066;SDS011;35952;52.524;13.340;2024-01-15T02:28:30;22.58;;;8.52;;
50066;SDS011;35952;52.524;13.340;2024-01-15T02:30:57;14.63;;;9.18;;
50066;SDS011;35952;52.524;13.340;2024-01-15T02:33:22;13.07;;;8.00;;
50066;SDS011;35952;52.524;13.340;2024-01-15T02:35:48;13.67;;;7.90;;
50066;SDS011;35952;52.524;13.340;2024-01-15T02:38:15;12.93;;;8.15;;
50066;SDS011;35952;52.524;13.340;2024-01-15T02:40:41;13.00;;;8.20;;
50066;SDS011;35952;52.524;13.340;2024-01-15T02:43:06;11.90;;;7.40;;
50066;SDS011;35952;52.524;13.340;2024-01-15T02:45:32;11.60;;;6.80;;
50066;SDS011;35952;52.524;13.340;2024-01-15T02:47:57;11.63;;;7.57;;
50066;SDS011;35952;52.524;13.340;2024-01-15T02:50:23;10.67;;;8.00;;
50066;SDS011;35952;52.524;13.340;2024-01-15T02:52:49;15.00;;;8.30;;
50066;SDS011;35952;52.524;13.340;2024-01-15T02:55:14;11.40;;;6.90;;
50066;SDS011;35952;52.524;13.340;2024-01-15T02:57:40;9.73;;;7.03;;
50066;SDS011;35952;52.524;13.340;2024-01-15T03:00:06;10.90;;;6.87;;
50066;SDS011;35952;52.524;13.340;2024-01-15T03:02:32;11.07;;;7.28;;
50066;SDS011;35952;52.524;13.340;2024-01-15T03:04:58;8.90;;;6.85;;
50066;SDS011;35952;52.524;13.340;2024-01-15T03:07:23;8.10;;;6.83;;
50066;SDS011;35952;52.524;13.340;2024-01-15T03:09:49;30.03;;;16.73;;
50066;SDS011;35952;52.524;13.340;2024-01-15T03:12:14;9.30;;;7.37;;
50066;SDS011;35952;52.524;13.340;2024-01-15T03:14:40;6.60;;;5.30;;
50066;SDS011;35952;52.524;13.340;2024-01-15T03:17:06;8.60;;;6.20;;
50066;SDS011;35952;52.524;13.340;2024-01-15T03:19:34;9.35;;;6.10;;
50066;SDS011;35952;52.524;13.340;2024-01-15T03:22:00;13.35;;;6.95;;
50066;SDS011;35952;52.524;13.340;2024-01-15T03:24:27;14.30;;;8.60;;
50066;SDS011;35952;52.524;13.340;2024-01-15T03:26:53;9.37;;;6.30;;
50066;SDS011;35952;52.524;13.340;2024-01-15T03:29:18;12.73;;;7.23;;
50066;SDS011;35952;52.524;13.340;2024-01-15T03:31:44;18.20;;;7.20;;
50066;SDS011;35952;52.524;13.340;2024-01-15T03:34:09;10.60;;;6.30;;
50066;SDS011;35952;52.524;13.340;2024-01-15T03:36:35;9.40;;;6.63;;
50066;SDS011;35952;52.524;13.340;2024-01-15T03:39:00;12.83;;;7.17;;
50066;SDS011;35952;52.524;13.340;2024-01-15T03:41:26;9.53;;;5.83;;
50066;SDS011;35952;52.524;13.340;2024-01-15T03:43:51;9.27;;;6.10;;
50066;SDS011;35952;52.524;13.340;2024-01-15T03:46:17;12.87;;;7.37;;
50066;SDS011;35952;52.524;13.340;2024-01-15T03:48:42;9.07;;;6.10;;
50066;SDS011;35952;52.524;13.340;2024-01-15T03:51:08;7.73;;;5.63;;
50066;SDS011;35952;52.524;13.340;2024-01-15T03:53:33;11.80;;;6.37;;
50066;SDS011;35952;52.524;13.340;2024-01-15T03:55:59;11.07;;;5.90;;
50066;SDS011;35952;52.524;13.340;2024-01-15T03:58:24;7.53;;;5.33;;
50066;SDS011;35952;52.524;13.340;2024-01-15T04:00:49;12.53;;;6.87;;
50066;SDS011;35952;52.524;13.340;2024-01-15T04:03:15;10.03;;;5.33;;
50066;SDS011;35952;52.524;13.340;2024-01-15T04:05:40;6.80;;;4.93;;
50066;SDS011;35952;52.524;13.340;2024-01-15T04:08:06;7.07;;;5.50;;
50066;SDS011;35952;52.524;13.340;2024-01-15T04:10:31;8.73;;;5.63;;
50066;SDS011;35952;52.524;13.340;2024-01-15T04:12:57;10.57;;;6.17;;
50066;SDS011;35952;52.524;13.340;2024-01-15T04:15:24;8.18;;;5.63;;
50066;SDS011;35952;52.524;13.340;2024-01-15T04:17:50;7.80;;;5.20;;
50066;SDS011;35952;52.524;13.340;2024-01-15T04:20:16;9.73;;;6.15;;
50066;SDS011;35952;52.524;13.340;2024-01-15T04:22:42;7.13;;;4.53;;
50066;SDS011;35952;52.524;13.340;2024-01-15T04:25:08;12.45;;;5.65;;
50066;SDS011;35952;52.524;13.340;2024-01-15T04:27:34;8.63;;;4.60;;
50066;SDS011;35952;52.524;13.340;2024-01-15T04:30:00;15.27;;;6.50;;
50066;SDS011;35952;52.524;13.340;2024-01-15T04:32:25;8.87;;;5.40;;
50066;SDS011;35952;52.524;13.340;2024-01-15T04:34:51;12.87;;;5.53;;
50066;SDS011;35952;52.524;13.340;2024-01-15T04:37:16;13.90;;;6.00;;
50066;SDS011;35952;52.524;13.340;2024-01-15T04:39:42;6.93;;;5.07;;
50066;SDS011;35952;52.524;13.340;2024-01-15T04:42:08;10.93;;;5.07;;
50066;SDS011;35952;52.524;13.340;2024-01-15T04:44:33;10.67;;;5.37;;
50066;SDS011;35952;52.524;13.340;2024-01-15T04:46:59;7.03;;;4.50;;
50066;SDS011;35952;52.524;13.340;2024-01-15T04:49:24;6.40;;;5.10;;
50066;SDS011;35952;52.524;13.340;2024-01-15T04:51:52;8.27;;;5.07;;
50066;SDS011;35952;52.524;13.340;2024-01-15T04:54:20;5.88;;;4.35;;
50066;SDS011;35952;52.524;13.340;2024-01-15T04:56:46;9.47;;;5.03;;
50066;SDS011;35952;52.524;13.340;2024-01-15T04:59:11;10.87;;;5.17;;
50066;SDS011;35952;52.524;13.340;2024-01-15T05:01:37;8.75;;;4.18;;
50066;SDS011;35952;52.524;13.340;2024-01-15T05:04:03;10.00;;;4.80;;
50066;SDS011;35952;52.524;13.340;2024-01-15T05:06:28;7.87;;;4.73;;
50066;SDS011;35952;52.524;13.340;2024-01-15T05:08:54;5.60;;;3.60;;
50066;SDS011;35952;52.524;13.340;2024-01-15T05:11:19;6.40;;;4.90;;
50066;SDS011;35952;52.524;13.340;2024-01-15T05:13:45;6.73;;;3.70;;
50066;SDS011;35952;52.524;13.340;2024-01-15T05:16:10;5.33;;;3.77;;
50066;SDS011;35952;52.524;13.340;2024-01-15T05:18:36;6.73;;;4.60;;
50066;SDS011;35952;52.524;13.340;2024-01-15T05:21:04;5.05;;;3.45;;
50066;SDS011;35952;52.524;13.340;2024-01-15T05:23:33;16.23;;;3.80;;
50066;SDS011;35952;52.524;13.340;2024-01-15T05:25:59;9.50;;;4.13;;
50066;SDS011;35952;52.524;13.340;2024-01-15T05:28:25;3.70;;;3.07;;
50066;SDS011;35952;52.524;13.340;2024-01-15T05:30:50;6.17;;;3.67;;
50066;SDS011;35952;52.524;13.340;2024-01-15T05:33:16;5.80;;;3.30;;
50066;SDS011;35952;52.524;13.340;2024-01-15T05:35:42;7.90;;;3.60;;
50066;SDS011;35952;52.524;13.340;2024-01-15T05:38:07;5.07;;;3.67;;
50066;SDS011;35952;52.524;13.340;2024-01-15T05:40:33;13.17;;;4.87;;
50066;SDS011;35952;52.524;13.340;2024-01-15T05:42:59;7.00;;;3.40;;
50066;SDS011;35952;52.524;13.340;2024-01-15T05:45:26;10.87;;;3.60;;
50066;SDS011;35952;52.524;13.340;2024-01-15T05:47:52;7.78;;;3.25;;
50066;SDS011;35952;52.524;13.340;2024-01-15T05:50:17;5.50;;;3.20;;
50066;SDS011;35952;52.524;13.340;2024-01-15T05:52:43;5.17;;;3.00;;
50066;SDS011;35952;52.524;13.340;2024-01-15T05:55:09;6.17;;;3.70;;
50066;SDS011;35952;52.524;13.340;2024-01-15T05:57:35;7.43;;;2.80;;
50066;SDS011;35952;52.524;13.340;2024-01-15T06:00:01;7.25;;;2.58;;
50066;SDS011;35952;52.524;13.340;2024-01-15T06:02:27;7.10;;;3.05;;
50066;SDS011;35952;52.524;13.340;2024-01-15T06:04:53;10.43;;;3.33;;
50066;SDS011;35952;52.524;13.340;2024-01-15T06:07:18;13.60;;;3.30;;
50066;SDS011;35952;52.524;13.340;2024-01-15T06:09:44;7.43;;;3.03;;
50066;SDS011;35952;52.524;13.340;2024-01-15T06:12:10;7.97;;;2.77;;
50066;SDS011;35952;52.524;13.340;2024-01-15T06:14:35;4.20;;;2.33;;
50066;SDS011;35952;52.524;13.340;2024-01-15T06:17:01;4.40;;;2.20;;
50066;SDS011;35952;52.524;13.340;2024-01-15T06:19:26;5.33;;;2.60;;
50066;SDS011;35952;52.524;13.340;2024-01-15T06:21:52;10.43;;;3.07;;
50066;SDS011;35952;52.524;13.340;2024-01-15T06:24:18;5.43;;;2.70;;
50066;SDS011;35952;52.524;13.340;2024-01-15T06:26:47;4.78;;;2.53;;
50066;SDS011;35952;52.524;13.340;2024-01-15T06:29:14;5.03;;;2.83;;
50066;SDS011;35952;52.524;13.340;2024-01-15T06:31:39;8.40;;;4.00;;
50066;SDS011;35952;52.524;13.340;2024-01-15T06:34:05;6.43;;;2.70;;
50066;SDS011;35952;52.524;13.340;2024-01-15T06:36:30;2.73;;;2.30;;
50066;SDS011;35952;52.524;13.340;2024-01-15T06:38:55;4.03;;;2.57;;
50066;SDS011;35952;52.524;13.340;2024-01-15T06:41:21;2.50;;;2.23;;
50066;SDS011;35952;52.524;13.340;2024-01-15T06:43:47;3.70;;;2.27;;
50066;SDS011;35952;52.524;13.340;2024-01-15T06:46:19;7.88;;;2.60;;
50066;SDS011;35952;52.524;13.340;2024-01-15T06:48:45;4.70;;;2.72;;
50066;SDS011;35952;52.524;13.340;2024-01-15T06:51:10;7.50;;;3.13;;
50066;SDS011;35952;52.524;13.340;2024-01-15T06:53:36;7.60;;;4.33;;
50066;SDS011;35952;52.524;13.340;2024-01-15T06:56:01;4.20;;;2.30;;
50066;SDS011;35952;52.524;13.340;2024-01-15T06:58:27;3.60;;;2.07;;
50066;SDS011;35952;52.524;13.340;2024-01-15T07:00:53;5.87;;;2.37;;
50066;SDS011;35952;52.524;13.340;2024-01-15T07:03:18;8.00;;;3.50;;
50066;SDS011;35952;52.524;13.340;2024-01-15T07:05:44;5.73;;;2.73;;
50066;SDS011;35952;52.524;13.340;2024-01-15T07:08:09;12.73;;;2.47;;
50066;SDS011;35952;52.524;13.340;2024-01-15T07:10:35;5.73;;;2.50;;
50066;SDS011;35952;52.524;13.340;2024-01-15T07:13:00;6.40;;;3.70;;
50066;SDS011;35952;52.524;13.340;2024-01-15T07:15:26;4.73;;;1.70;;
50066;SDS011;35952;52.524;13.340;2024-01-15T07:17:51;8.97;;;2.27;;
50066;SDS011;35952;52.524;13.340;2024-01-15T07:20:17;3.67;;;1.70;;
50066;SDS011;35952;52.524;13.340;2024-01-15T07:22:44;2.63;;;1.83;;
50066;SDS011;35952;52.524;13.340;2024-01-15T07:25:10;9.03;;;2.53;;
50066;SDS011;35952;52.524;13.340;2024-01-15T07:27:35;15.53;;;3.57;;
50066;SDS011;35952;52.524;13.340;2024-01-15T07:30:01;7.60;;;2.60;;
50066;SDS011;35952;52.524;13.340;2024-01-15T07:32:29;12.00;;;2.70;;
50066;SDS011;35952;52.524;13.340;2024-01-15T07:34:56;9.02;;;2.15;;
50066;SDS011;35952;52.524;13.340;2024-01-15T07:37:21;7.10;;;2.87;;
50066;SDS011;35952;52.524;13.340;2024-01-15T07:39:48;8.07;;;3.58;;
50066;SDS011;35952;52.524;13.340;2024-01-15T07:42:14;6.77;;;2.63;;
50066;SDS011;35952;52.524;13.340;2024-01-15T07:44:39;4.57;;;2.30;;
50066;SDS011;35952;52.524;13.340;2024-01-15T07:47:05;11.10;;;2.90;;
50066;SDS011;35952;52.524;13.340;2024-01-15T07:49:30;5.17;;;2.20;;
50066;SDS011;35952;52.524;13.340;2024-01-15T07:51:56;7.10;;;2.93;;
50066;SDS011;35952;52.524;13.340;2024-01-15T07:54:21;4.73;;;3.50;;
50066;SDS011;35952;52.524;13.340;2024-01-15T07:56:58;8.10;;;2.60;;
50066;SDS011;35952;52.524;13.340;2024-01-15T07:59:25;4.90;;;2.10;;
50066;SDS011;35952;52.524;13.340;2024-01-15T08:01:52;6.80;;;2.30;;
50066;SDS011;35952;52.524;13.340;2024-01-15T08:04:18;8.07;;;2.38;;
50066;SDS011;35952;52.524;13.340;2024-01-15T08:06:44;5.47;;;2.50;;
50066;SDS011;35952;52.524;13.340;2024-01-15T08:09:10;7.63;;;1.97;;
50066;SDS011;35952;52.524;13.340;2024-01-15T08:11:36;4.28;;;1.95;;
50066;SDS011;35952;52.524;13.340;2024-01-15T08:14:05;10.23;;;2.63;;
50066;SDS011;35952;52.524;13.340;2024-01-15T08:16:30;7.53;;;2.63;;
50066;SDS011;35952;52.524;13.340;2024-01-15T08:18:57;9.35;;;2.15;;
50066;SDS011;35952;52.524;13.340;2024-01-15T08:21:23;10.00;;;2.77;;
50066;SDS011;35952;52.524;13.340;2024-01-15T08:23:48;11.33;;;2.63;;
50066;SDS011;35952;52.524;13.340;2024-01-15T08:26:14;4.90;;;2.00;;
50066;SDS011;35952;52.524;13.340;2024-01-15T08:28:39;6.23;;;2.70;;
50066;SDS011;35952;52.524;13.340;2024-01-15T08:31:05;8.00;;;2.43;;
50066;SDS011;35952;52.524;13.340;2024-01-15T08:33:30;7.87;;;2.37;;
50066;SDS011;35952;52.524;13.340;2024-01-15T08:35:56;8.63;;;2.73;;
50066;SDS011;35952;52.524;13.340;2024-01-15T08:38:21;5.57;;;2.23;;
50066;SDS011;35952;52.524;13.340;2024-01-15T08:40:47;9.93;;;2.50;;
50066;SDS011;35952;52.524;13.340;2024-01-15T08:43:14;3.00;;;2.45;;
50066;SDS011;35952;52.524;13.340;2024-01-15T08:45:39;2.70;;;1.63;;
50066;SDS011;35952;52.524;13.340;2024-01-15T08:48:05;2.90;;;1.97;;
50066;SDS011;35952;52.524;13.340;2024-01-15T08:50:31;14.37;;;3.33;;
50066;SDS011;35952;52.524;13.340;2024-01-15T08:52:57;8.50;;;2.50;;
50066;SDS011;35952;52.524;13.340;2024-01-15T08:55:23;5.25;;;2.35;;
50066;SDS011;35952;52.524;13.340;2024-01-15T08:57:49;7.10;;;3.20;;
50066;SDS011;35952;52.524;13.340;2024-01-15T09:00:15;4.10;;;2.10;;
50066;SDS011;35952;52.524;13.340;2024-01-15T09:02:41;9.45;;;2.65;;
50066;SDS011;35952;52.524;13.340;2024-01-15T09:05:07;4.93;;;2.60;;
50066;SDS011;35952;52.524;13.340;2024-01-15T09:07:33;7.50;;;2.07;;
50066;SDS011;35952;52.524;13.340;2024-01-15T09:09:58;11.77;;;3.23;;
50066;SDS011;35952;52.524;13.340;2024-01-15T09:12:25;7.70;;;2.53;;
50066;SDS011;35952;52.524;13.340;2024-01-15T09:14:51;8.73;;;2.67;;
50066;SDS011;35952;52.524;13.340;2024-01-15T09:17:17;7.95;;;3.47;;
50066;SDS011;35952;52.524;13.340;2024-01-15T09:19:43;6.70;;;5.03;;
50066;SDS011;35952;52.524;13.340;2024-01-15T09:22:09;8.25;;;2.60;;
50066;SDS011;35952;52.524;13.340;2024-01-15T09:24:34;4.97;;;2.17;;
50066;SDS011;35952;52.524;13.340;2024-01-15T09:27:00;11.33;;;2.53;;
50066;SDS011;35952;52.524;13.340;2024-01-15T09:29:26;6.27;;;2.43;;
50066;SDS011;35952;52.524;13.340;2024-01-15T09:31:51;6.47;;;2.97;;
50066;SDS011;35952;52.524;13.340;2024-01-15T09:34:17;7.00;;;2.00;;
50066;SDS011;35952;52.524;13.340;2024-01-15T09:36:43;5.47;;;2.73;;
50066;SDS011;35952;52.524;13.340;2024-01-15T09:39:09;3.37;;;2.37;;
50066;SDS011;35952;52.524;13.340;2024-01-15T09:41:36;7.00;;;2.50;;
50066;SDS011;35952;52.524;13.340;2024-01-15T09:44:02;7.97;;;3.40;;
50066;SDS011;35952;52.524;13.340;2024-01-15T09:46:28;8.77;;;5.10;;
50066;SDS011;35952;52.524;13.340;2024-01-15T09:48:56;5.20;;;2.42;;
50066;SDS011;35952;52.524;13.340;2024-01-15T09:51:22;2.43;;;2.23;;
50066;SDS011;35952;52.524;13.340;2024-01-15T09:53:49;7.85;;;2.30;;
50066;SDS011;35952;52.524;13.340;2024-01-15T09:56:15;5.63;;;2.07;;
50066;SDS011;35952;52.524;13.340;2024-01-15T09:58:41;8.50;;;2.30;;
50066;SDS011;35952;52.524;13.340;2024-01-15T10:01:07;3.47;;;1.90;;
50066;SDS011;35952;52.524;13.340;2024-01-15T10:03:33;9.45;;;2.30;;
50066;SDS011;35952;52.524;13.340;2024-01-15T10:05:59;5.27;;;1.83;;
50066;SDS011;35952;52.524;13.340;2024-01-15T10:08:25;6.90;;;2.60;;
50066;SDS011;35952;52.524;13.340;2024-01-15T10:10:50;6.67;;;2.23;;
50066;SDS011;35952;52.524;13.340;2024-01-15T10:13:16;2.17;;;1.97;;
50066;SDS011;35952;52.524;13.340;2024-01-15T10:15:45;2.30;;;1.87;;
50066;SDS011;35952;52.524;13.340;2024-01-15T10:18:12;5.07;;;2.58;;
50066;SDS011;35952;52.524;13.340;2024-01-15T10:20:37;4.27;;;2.57;;
50066;SDS011;35952;52.524;13.340;2024-01-15T10:23:04;5.95;;;2.80;;
50066;SDS011;35952;52.524;13.340;2024-01-15T10:25:30;5.90;;;2.23;;
50066;SDS011;35952;52.524;13.340;2024-01-15T10:27:59;3.20;;;2.00;;
50066;SDS011;35952;52.524;13.340;2024-01-15T10:30:29;2.07;;;1.87;;
50066;SDS011;35952;52.524;13.340;2024-01-15T10:32:58;5.18;;;2.17;;
50066;SDS011;35952;52.524;13.340;2024-01-15T10:35:29;8.02;;;2.30;;
50066;SDS011;35952;52.524;13.340;2024-01-15T10:37:56;4.77;;;1.90;;
50066;SDS011;35952;52.524;13.340;2024-01-15T10:40:23;3.80;;;2.10;;
50066;SDS011;35952;52.524;13.340;2024-01-15T10:42:48;5.40;;;1.97;;
50066;SDS011;35952;52.524;13.340;2024-01-15T10:45:14;5.57;;;2.43;;
50066;SDS011;35952;52.524;13.340;2024-01-15T10:47:42;5.73;;;2.40;;
50066;SDS011;35952;52.524;13.340;2024-01-15T10:50:09;4.50;;;2.27;;
50066;SDS011;35952;52.524;13.340;2024-01-15T10:52:35;2.00;;;1.83;;
50066;SDS011;35952;52.524;13.340;2024-01-15T10:55:02;3.97;;;1.70;;
50066;SDS011;35952;52.524;13.340;2024-01-15T10:57:31;5.13;;;1.80;;
50066;SDS011;35952;52.524;13.340;2024-01-15T10:59:57;2.40;;;1.67;;
50066;SDS011;35952;52.524;13.340;2024-01-15T11:02:23;4.67;;;1.77;;
50066;SDS011;35952;52.524;13.340;2024-01-15T11:04:50;2.60;;;1.73;;
50066;SDS011;35952;52.524;13.340;2024-01-15T11:07:16;2.57;;;1.80;;
50066;SDS011;35952;52.524;13.340;2024-01-15T11:09:43;4.20;;;1.90;;
50066;SDS011;35952;52.524;13.340;2024-01-15T11:12:12;3.87;;;1.53;;
50066;SDS011;35952;52.524;13.340;2024-01-15T11:17:04;7.80;;;1.77;;
50066;SDS011;35952;52.524;13.340;2024-01-15T11:19:47;1.37;;;1.27;;
50066;SDS011;35952;52.524;13.340;2024-01-15T11:25:13;3.85;;;2.70;;
50066;SDS011;35952;52.524;13.340;2024-01-15T11:27:43;4.03;;;3.03;;
50066;SDS011;35952;52.524;13.340;2024-01-15T11:30:13;2.55;;;1.33;;
50066;SDS011;35952;52.524;13.340;2024-01-15T11:32:39;3.37;;;2.40;;
50066;SDS011;35952;52.524;13.340;2024-01-15T11:35:08;1.90;;;1.80;;
50066;SDS011;35952;52.524;13.340;2024-01-15T11:40:23;2.72;;;1.95;;
50066;SDS011;35952;52.524;13.340;2024-01-15T11:43:05;4.00;;;2.20;;
50066;SDS011;35952;52.524;13.340;2024-01-15T11:45:32;4.10;;;1.67;;
50066;SDS011;35952;52.524;13.340;2024-01-15T11:48:11;2.47;;;2.27;;
50066;SDS011;35952;52.524;13.340;2024-01-15T11:50:45;4.57;;;3.30;;
50066;SDS011;35952;52.524;13.340;2024-01-15T11:55:44;6.70;;;3.42;;
50066;SDS011;35952;52.524;13.340;2024-01-15T11:58:10;8.82;;;3.72;;
50066;SDS011;35952;52.524;13.340;2024-01-15T12:00:42;5.53;;;3.10;;
50066;SDS011;35952;52.524;13.340;2024-01-15T12:03:10;8.30;;;5.07;;
50066;SDS011;35952;52.524;13.340;2024-01-15T12:05:39;9.63;;;5.20;;
50066;SDS011;35952;52.524;13.340;2024-01-15T12:08:06;5.75;;;4.63;;
50066;SDS011;35952;52.524;13.340;2024-01-15T12:10:35;4.85;;;2.25;;
50066;SDS011;35952;52.524;13.340;2024-01-15T12:13:05;2.70;;;2.50;;
50066;SDS011;35952;52.524;13.340;2024-01-15T12:15:38;2.65;;;2.08;;
50066;SDS011;35952;52.524;13.340;2024-01-15T12:18:06;1.92;;;1.83;;
50066;SDS011;35952;52.524;13.340;2024-01-15T12:20:33;2.50;;;2.40;;
50066;SDS011;35952;52.524;13.340;2024-01-15T12:22:59;5.70;;;2.57;;
50066;SDS011;35952;52.524;13.340;2024-01-15T12:25:25;2.33;;;2.15;;
50066;SDS011;35952;52.524;13.340;2024-01-15T12:27:54;2.28;;;2.05;;
50066;SDS011;35952;52.524;13.340;2024-01-15T12:30:20;3.03;;;1.57;;
50066;SDS011;35952;52.524;13.340;2024-01-15T12:32:46;3.83;;;2.30;;
50066;SDS011;35952;52.524;13.340;2024-01-15T12:35:12;2.53;;;2.03;;
50066;SDS011;35952;52.524;13.340;2024-01-15T12:37:42;3.58;;;2.17;;
50066;SDS011;35952;52.524;13.340;2024-01-15T12:40:09;1.83;;;1.73;;
50066;SDS011;35952;52.524;13.340;2024-01-15T12:42:35;5.43;;;1.90;;
50066;SDS011;35952;52.524;13.340;2024-01-15T12:45:02;3.30;;;1.98;;
50066;SDS011;35952;52.524;13.340;2024-01-15T12:47:29;2.65;;;2.10;;
50066;SDS011;35952;52.524;13.340;2024-01-15T12:49:55;2.40;;;2.08;;
50066;SDS011;35952;52.524;13.340;2024-01-15T12:52:28;2.90;;;2.70;;
50066;SDS011;35952;52.524;13.340;2024-01-15T12:54:54;4.40;;;3.33;;
50066;SDS011;35952;52.524;13.340;2024-01-15T12:57:21;3.95;;;2.63;;
50066;SDS011;35952;52.524;13.340;2024-01-15T12:59:46;2.77;;;2.30;;
50066;SDS011;35952;52.524;13.340;2024-01-15T13:02:12;2.87;;;2.67;;
50066;SDS011;35952;52.524;13.340;2024-01-15T13:04:38;6.65;;;3.20;;
50066;SDS011;35952;52.524;13.340;2024-01-15T13:07:08;4.43;;;3.65;;
50066;SDS011;35952;52.524;13.340;2024-01-15T13:09:34;4.35;;;2.50;;
50066;SDS011;35952;52.524;13.340;2024-01-15T13:12:00;3.50;;;3.20;;
50066;SDS011;35952;52.524;13.340;2024-01-15T13:14:27;4.45;;;2.90;;
50066;SDS011;35952;52.524;13.340;2024-01-15T13:16:52;5.10;;;4.60;;
50066;SDS011;35952;52.524;13.340;2024-01-15T13:19:18;2.10;;;1.90;;
50066;SDS011;35952;52.524;13.340;2024-01-15T13:21:46;6.80;;;4.88;;
50066;SDS011;35952;52.524;13.340;2024-01-15T13:24:11;9.23;;;6.77;;
50066;SDS011;35952;52.524;13.340;2024-01-15T13:26:37;3.57;;;2.70;;
50066;SDS011;35952;52.524;13.340;2024-01-15T13:29:03;2.87;;;2.30;;
50066;SDS011;35952;52.524;13.340;2024-01-15T13:31:29;3.70;;;2.80;;
50066;SDS011;35952;52.524;13.340;2024-01-15T13:33:55;1.85;;;1.65;;
50066;SDS011;35952;52.524;13.340;2024-01-15T13:36:21;5.10;;;2.60;;
50066;SDS011;35952;52.524;13.340;2024-01-15T13:38:50;2.10;;;1.90;;
50066;SDS011;35952;52.524;13.340;2024-01-15T13:41:16;2.85;;;2.40;;
50066;SDS011;35952;52.524;13.340;2024-01-15T13:43:45;4.10;;;2.28;;
50066;SDS011;35952;52.524;13.340;2024-01-15T13:46:11;4.88;;;2.22;;
50066;SDS011;35952;52.524;13.340;2024-01-15T13:48:36;1.93;;;1.83;;
50066;SDS011;35952;52.524;13.340;2024-01-15T13:51:02;2.57;;;2.40;;
50066;SDS011;35952;52.524;13.340;2024-01-15T13:53:28;6.03;;;4.17;;
50066;SDS011;35952;52.524;13.340;2024-01-15T13:55:54;5.15;;;3.53;;
50066;SDS011;35952;52.524;13.340;2024-01-15T13:58:20;9.20;;;3.93;;
50066;SDS011;35952;52.524;13.340;2024-01-15T14:00:46;2.67;;;2.47;;
50066;SDS011;35952;52.524;13.340;2024-01-15T14:03:12;3.20;;;2.23;;
50066;SDS011;35952;52.524;13.340;2024-01-15T14:05:37;4.03;;;2.50;;
50066;SDS011;35952;52.524;13.340;2024-01-15T14:08:03;3.33;;;2.17;;
50066;SDS011;35952;52.524;13.340;2024-01-15T14:10:29;2.97;;;2.10;;
50066;SDS011;35952;52.524;13.340;2024-01-15T14:12:54;2.70;;;1.70;;
50066;SDS011;35952;52.524;13.340;2024-01-15T14:15:20;2.57;;;2.07;;
50066;SDS011;35952;52.524;13.340;2024-01-15T14:17:46;4.22;;;2.10;;
50066;SDS011;35952;52.524;13.340;2024-01-15T14:20:12;3.20;;;2.10;;
50066;SDS011;35952;52.524;13.340;2024-01-15T14:22:38;5.37;;;2.30;;
50066;SDS011;35952;52.524;13.340;2024-01-15T14:25:03;11.33;;;2.53;;
50066;SDS011;35952;52.524;13.340;2024-01-15T14:27:29;2.33;;;1.93;;
50066;SDS011;35952;52.524;13.340;2024-01-15T14:29:54;2.77;;;2.47;;
50066;SDS011;35952;52.524;13.340;2024-01-15T14:32:20;5.33;;;3.03;;
50066;SDS011;35952;52.524;13.340;2024-01-15T14:34:45;7.10;;;2.73;;